Terminal Aerodrome Forecast
Issued by NWS

Home | Current Version | Previous Version | Text Only | Print | Product List | Glossary On
Versions: 1 2 3 4 5 6 7 8 9 10 11 12 13 14 15 16 17
830
FTUS45 KTFX 251907 AAA
TAFGTF
TAF AMD
KGTF 251907Z 2519/2618 36005KT P6SM BKN020 OVC025
      TEMPO 2519/2521 VRB15G30KT TSRAGS BKN020CB
     FM260300 02005KT P6SM SCT030 BKN045
     FM260400 36005KT P6SM VCSH SCT030 BKN050
     FM261000 15006KT P6SM BKN050
     FM261200 21007KT P6SM BKN050 PROB30 2612/2618 4SM -SHRASN
      OVC025=

USA.gov is the U.S. government's official web portal to all federal, state and local government web resources and services.